Arnold, Missouri
Current Conditions -  °F | °C
As of 2:53 PM on Thursday 23 Oct 2014 (Local Time) from KCPS Reporting Station
Clear Clear  
Wind Chill: 63°   Ceiling: Unl
Heat Index: 63°   Visibility: 10mi
Dew Point: 45°   Wind: 6mph
Humidity: 52%   Direction: 160°SSE
Pressure: 30.13"   Gusts: NA
Location:  38.42°N, 90.37°W
Report Text: KCPS 231953Z 16005KT 10SM CLR 17/07 A3013 RMK AO2 SLP202 T01720072
Loading
Personal Weather Stations






























Interactive Weather Map New forecast layout! Learn more

10-Day Weather Forecast

Advertisements
Track Severe Weather on mobile